sensor_id;sensor_type;location;lat;lon;timestamp;pressure;altitude;pressure_sealevel;temperature;humidity
10135;BME280;5107;48.850;8.924;2023-05-14T00:02:09;96814.38;;;11.53;92.50
10135;BME280;5107;48.850;8.924;2023-05-14T00:04:35;96812.19;;;11.57;92.36
10135;BME280;5107;48.850;8.924;2023-05-14T00:07:00;96816.19;;;11.53;92.51
10135;BME280;5107;48.850;8.924;2023-05-14T00:09:25;96814.38;;;11.53;92.42
10135;BME280;5107;48.850;8.924;2023-05-14T00:11:51;96808.94;;;11.55;92.18
10135;BME280;5107;48.850;8.924;2023-05-14T00:14:16;96808.56;;;11.58;92.24
10135;BME280;5107;48.850;8.924;2023-05-14T00:16:42;96812.69;;;11.60;92.66
10135;BME280;5107;48.850;8.924;2023-05-14T00:19:07;96803.41;;;11.64;92.13
10135;BME280;5107;48.850;8.924;2023-05-14T00:21:32;96801.44;;;11.66;91.90
10135;BME280;5107;48.850;8.924;2023-05-14T00:23:58;96804.97;;;11.82;91.48
10135;BME280;5107;48.850;8.924;2023-05-14T00:26:23;96796.44;;;11.80;90.90
10135;BME280;5107;48.850;8.924;2023-05-14T00:28:49;96783.22;;;11.88;90.65
10135;BME280;5107;48.850;8.924;2023-05-14T00:31:14;96790.00;;;11.74;90.08
10135;BME280;5107;48.850;8.924;2023-05-14T00:33:39;96783.84;;;11.59;90.76
10135;BME280;5107;48.850;8.924;2023-05-14T00:36:05;96776.66;;;11.53;91.56
10135;BME280;5107;48.850;8.924;2023-05-14T00:38:30;96776.66;;;11.53;91.21
10135;BME280;5107;48.850;8.924;2023-05-14T00:40:56;96776.81;;;11.51;92.02
10135;BME280;5107;48.850;8.924;2023-05-14T00:43:21;96773.06;;;11.46;92.07
10135;BME280;5107;48.850;8.924;2023-05-14T00:45:53;96774.88;;;11.45;92.56
10135;BME280;5107;48.850;8.924;2023-05-14T00:48:19;96769.13;;;11.41;93.01
10135;BME280;5107;48.850;8.924;2023-05-14T00:50:45;96775.28;;;11.34;92.49
10135;BME280;5107;48.850;8.924;2023-05-14T00:53:11;96775.47;;;11.24;92.64
10135;BME280;5107;48.850;8.924;2023-05-14T00:55:40;96769.78;;;11.13;92.67
10135;BME280;5107;48.850;8.924;2023-05-14T00:58:09;96762.72;;;11.05;93.10
10135;BME280;5107;48.850;8.924;2023-05-14T01:00:35;96761.31;;;10.94;93.02
10135;BME280;5107;48.850;8.924;2023-05-14T01:03:01;96759.28;;;10.96;93.56
10135;BME280;5107;48.850;8.924;2023-05-14T01:05:38;96758.00;;;10.92;93.73
10135;BME280;5107;48.850;8.924;2023-05-14T01:08:16;96752.44;;;10.87;93.92
10135;BME280;5107;48.850;8.924;2023-05-14T01:10:52;96754.25;;;10.87;93.69
10135;BME280;5107;48.850;8.924;2023-05-14T01:13:52;96757.22;;;10.84;93.57
10135;BME280;5107;48.850;8.924;2023-05-14T01:16:18;96752.97;;;10.75;92.63
10135;BME280;5107;48.850;8.924;2023-05-14T01:18:45;96745.94;;;10.67;93.42
10135;BME280;5107;48.850;8.924;2023-05-14T01:21:43;96746.44;;;10.71;94.05
10135;BME280;5107;48.850;8.924;2023-05-14T01:24:08;96746.75;;;10.68;93.41
10135;BME280;5107;48.850;8.924;2023-05-14T01:26:34;96737.53;;;10.63;93.62
10135;BME280;5107;48.850;8.924;2023-05-14T01:29:16;96745.78;;;10.60;93.63
10135;BME280;5107;48.850;8.924;2023-05-14T01:31:45;96754.53;;;10.53;93.53
10135;BME280;5107;48.850;8.924;2023-05-14T01:34:11;96756.69;;;10.41;93.00
10135;BME280;5107;48.850;8.924;2023-05-14T01:36:39;96756.53;;;10.35;92.35
10135;BME280;5107;48.850;8.924;2023-05-14T01:39:05;96757.00;;;10.30;92.69
10135;BME280;5107;48.850;8.924;2023-05-14T01:41:34;96755.72;;;10.26;93.15
10135;BME280;5107;48.850;8.924;2023-05-14T01:44:00;96754.59;;;10.20;93.26
10135;BME280;5107;48.850;8.924;2023-05-14T01:46:30;96759.50;;;10.23;94.06
10135;BME280;5107;48.850;8.924;2023-05-14T01:48:55;96762.63;;;10.11;93.63
10135;BME280;5107;48.850;8.924;2023-05-14T01:51:21;96768.19;;;10.00;93.83
10135;BME280;5107;48.850;8.924;2023-05-14T01:53:46;96771.97;;;9.97;94.18
10135;BME280;5107;48.850;8.924;2023-05-14T01:56:11;96766.56;;;9.99;94.04
10135;BME280;5107;48.850;8.924;2023-05-14T01:58:37;96767.69;;;10.04;94.51
10135;BME280;5107;48.850;8.924;2023-05-14T02:01:02;96767.06;;;10.02;94.66
10135;BME280;5107;48.850;8.924;2023-05-14T02:03:27;96762.94;;;10.16;94.31
10135;BME280;5107;48.850;8.924;2023-05-14T02:05:53;96758.19;;;10.19;94.14
10135;BME280;5107;48.850;8.924;2023-05-14T02:08:18;96758.50;;;10.33;93.56
10135;BME280;5107;48.850;8.924;2023-05-14T02:10:43;96748.31;;;10.46;92.90
10135;BME280;5107;48.850;8.924;2023-05-14T02:13:09;96744.31;;;10.58;91.98
10135;BME280;5107;48.850;8.924;2023-05-14T02:15:34;96744.28;;;10.66;91.34
10135;BME280;5107;48.850;8.924;2023-05-14T02:17:59;96750.25;;;10.52;91.45
10135;BME280;5107;48.850;8.924;2023-05-14T02:20:24;96747.97;;;10.33;91.38
10135;BME280;5107;48.850;8.924;2023-05-14T02:22:50;96747.66;;;10.03;91.04
10135;BME280;5107;48.850;8.924;2023-05-14T02:25:15;96751.44;;;9.93;91.63
10135;BME280;5107;48.850;8.924;2023-05-14T02:27:41;96754.38;;;9.81;92.33
10135;BME280;5107;48.850;8.924;2023-05-14T02:30:07;96755.56;;;9.79;93.41
10135;BME280;5107;48.850;8.924;2023-05-14T02:32:32;96755.88;;;9.76;94.33
10135;BME280;5107;48.850;8.924;2023-05-14T02:34:57;96751.91;;;9.72;94.66
10135;BME280;5107;48.850;8.924;2023-05-14T02:37:23;96755.56;;;9.87;94.82
10135;BME280;5107;48.850;8.924;2023-05-14T02:39:48;96750.94;;;9.81;93.77
10135;BME280;5107;48.850;8.924;2023-05-14T02:42:13;96754.53;;;9.72;94.52
10135;BME280;5107;48.850;8.924;2023-05-14T02:44:39;96747.84;;;9.69;95.03
10135;BME280;5107;48.850;8.924;2023-05-14T02:47:04;96748.66;;;9.70;95.54
10135;BME280;5107;48.850;8.924;2023-05-14T02:49:30;96744.03;;;9.72;95.87
10135;BME280;5107;48.850;8.924;2023-05-14T02:51:55;96747.00;;;9.77;95.75
10135;BME280;5107;48.850;8.924;2023-05-14T02:54:20;96748.16;;;9.82;95.56
10135;BME280;5107;48.850;8.924;2023-05-14T02:56:45;96745.84;;;9.79;95.53
10135;BME280;5107;48.850;8.924;2023-05-14T02:59:11;96744.69;;;9.74;95.54
10135;BME280;5107;48.850;8.924;2023-05-14T03:01:36;96747.31;;;9.66;95.51
10135;BME280;5107;48.850;8.924;2023-05-14T03:04:02;96750.78;;;9.66;95.67
10135;BME280;5107;48.850;8.924;2023-05-14T03:06:27;96760.78;;;9.63;94.94
10135;BME280;5107;48.850;8.924;2023-05-14T03:08:53;96756.03;;;9.58;94.43
10135;BME280;5107;48.850;8.924;2023-05-14T03:11:18;96747.00;;;9.52;94.50
10135;BME280;5107;48.850;8.924;2023-05-14T03:13:43;96756.69;;;9.52;94.92
10135;BME280;5107;48.850;8.924;2023-05-14T03:16:09;96751.91;;;9.64;94.68
10135;BME280;5107;48.850;8.924;2023-05-14T03:18:34;96756.84;;;9.67;94.70
10135;BME280;5107;48.850;8.924;2023-05-14T03:21:00;96764.06;;;9.73;94.39
10135;BME280;5107;48.850;8.924;2023-05-14T03:23:26;96756.53;;;9.62;93.82
10135;BME280;5107;48.850;8.924;2023-05-14T03:25:52;96765.88;;;9.56;94.44
10135;BME280;5107;48.850;8.924;2023-05-14T03:28:17;96759.47;;;9.59;94.25
10135;BME280;5107;48.850;8.924;2023-05-14T03:30:42;96753.41;;;9.66;94.79
10135;BME280;5107;48.850;8.924;2023-05-14T03:33:08;96758.50;;;9.68;94.77
10135;BME280;5107;48.850;8.924;2023-05-14T03:35:33;96753.56;;;9.73;95.35
10135;BME280;5107;48.850;8.924;2023-05-14T03:37:58;96751.28;;;9.70;95.30
10135;BME280;5107;48.850;8.924;2023-05-14T03:40:24;96747.47;;;9.72;95.40
10135;BME280;5107;48.850;8.924;2023-05-14T03:42:49;96749.97;;;9.74;95.75
10135;BME280;5107;48.850;8.924;2023-05-14T03:45:15;96750.47;;;9.77;95.89
10135;BME280;5107;48.850;8.924;2023-05-14T03:47:40;96750.47;;;9.94;95.83
10135;BME280;5107;48.850;8.924;2023-05-14T03:50:06;96740.28;;;9.90;94.87
10135;BME280;5107;48.850;8.924;2023-05-14T03:52:32;96750.31;;;9.79;94.14
10135;BME280;5107;48.850;8.924;2023-05-14T03:54:57;96748.66;;;9.78;95.34
10135;BME280;5107;48.850;8.924;2023-05-14T03:57:23;96746.66;;;9.80;95.54
10135;BME280;5107;48.850;8.924;2023-05-14T03:59:48;96742.41;;;9.87;95.48
10135;BME280;5107;48.850;8.924;2023-05-14T04:02:13;96748.31;;;9.89;95.58
10135;BME280;5107;48.850;8.924;2023-05-14T04:04:39;96753.72;;;9.71;94.35
10135;BME280;5107;48.850;8.924;2023-05-14T04:07:05;96758.16;;;9.71;95.27
10135;BME280;5107;48.850;8.924;2023-05-14T04:09:30;96756.19;;;9.65;95.64
10135;BME280;5107;48.850;8.924;2023-05-14T04:11:55;96751.28;;;9.70;95.68
10135;BME280;5107;48.850;8.924;2023-05-14T04:14:21;96749.47;;;9.70;95.92
10135;BME280;5107;48.850;8.924;2023-05-14T04:16:46;96748.97;;;9.75;95.80
10135;BME280;5107;48.850;8.924;2023-05-14T04:19:11;96748.16;;;9.90;95.49
10135;BME280;5107;48.850;8.924;2023-05-14T04:21:37;96756.41;;;10.20;93.74
10135;BME280;5107;48.850;8.924;2023-05-14T04:24:03;96751.13;;;10.20;93.35
10135;BME280;5107;48.850;8.924;2023-05-14T04:26:28;96749.34;;;10.20;93.54
10135;BME280;5107;48.850;8.924;2023-05-14T04:28:53;96747.84;;;10.18;93.77
10135;BME280;5107;48.850;8.924;2023-05-14T04:31:19;96754.06;;;10.17;93.95
10135;BME280;5107;48.850;8.924;2023-05-14T04:33:44;96750.75;;;10.15;93.88
10135;BME280;5107;48.850;8.924;2023-05-14T04:36:09;96745.88;;;10.20;93.98
10135;BME280;5107;48.850;8.924;2023-05-14T04:38:35;96747.97;;;10.41;94.15
10135;BME280;5107;48.850;8.924;2023-05-14T04:41:00;96745.34;;;10.41;93.71
10135;BME280;5107;48.850;8.924;2023-05-14T04:43:26;96744.00;;;10.53;93.16
10135;BME280;5107;48.850;8.924;2023-05-14T04:45:51;96742.22;;;10.45;93.00
10135;BME280;5107;48.850;8.924;2023-05-14T04:48:17;96746.66;;;10.45;93.43
10135;BME280;5107;48.850;8.924;2023-05-14T04:50:42;96740.22;;;10.47;93.85
10135;BME280;5107;48.850;8.924;2023-05-14T04:53:08;96745.78;;;10.60;92.97
10135;BME280;5107;48.850;8.924;2023-05-14T04:55:34;96753.53;;;10.54;92.51
10135;BME280;5107;48.850;8.924;2023-05-14T04:57:59;96749.41;;;10.59;93.12
10135;BME280;5107;48.850;8.924;2023-05-14T05:00:25;96745.25;;;10.73;92.09
10135;BME280;5107;48.850;8.924;2023-05-14T05:02:50;96746.56;;;10.77;91.90
10135;BME280;5107;48.850;8.924;2023-05-14T05:05:15;96746.84;;;10.82;92.23
10135;BME280;5107;48.850;8.924;2023-05-14T05:07:40;96750.81;;;10.86;92.45
10135;BME280;5107;48.850;8.924;2023-05-14T05:10:06;96756.19;;;10.93;90.51
10135;BME280;5107;48.850;8.924;2023-05-14T05:12:32;96751.84;;;11.08;89.41
10135;BME280;5107;48.850;8.924;2023-05-14T05:14:59;96746.03;;;11.21;87.72
10135;BME280;5107;48.850;8.924;2023-05-14T05:17:24;96748.31;;;11.24;86.81
10135;BME280;5107;48.850;8.924;2023-05-14T05:19:50;96749.00;;;11.18;87.98
10135;BME280;5107;48.850;8.924;2023-05-14T05:22:15;96746.66;;;11.23;87.12
10135;BME280;5107;48.850;8.924;2023-05-14T05:24:40;96748.97;;;11.26;86.89
10135;BME280;5107;48.850;8.924;2023-05-14T05:27:06;96752.63;;;11.17;86.20
10135;BME280;5107;48.850;8.924;2023-05-14T05:29:32;96744.44;;;11.12;86.85
10135;BME280;5107;48.850;8.924;2023-05-14T05:31:57;96750.88;;;11.09;87.90
10135;BME280;5107;48.850;8.924;2023-05-14T05:34:23;96751.69;;;11.10;88.49
10135;BME280;5107;48.850;8.924;2023-05-14T05:36:48;96749.34;;;11.15;87.45
10135;BME280;5107;48.850;8.924;2023-05-14T05:39:13;96742.59;;;11.20;87.88
10135;BME280;5107;48.850;8.924;2023-05-14T05:41:39;96746.16;;;11.27;86.52
10135;BME280;5107;48.850;8.924;2023-05-14T05:44:04;96747.31;;;11.25;86.95
10135;BME280;5107;48.850;8.924;2023-05-14T05:46:30;96736.75;;;11.33;85.95
10135;BME280;5107;48.850;8.924;2023-05-14T05:48:55;96745.31;;;11.35;85.75
10135;BME280;5107;48.850;8.924;2023-05-14T05:51:20;96744.34;;;11.28;85.96
10135;BME280;5107;48.850;8.924;2023-05-14T05:53:46;96741.84;;;11.34;86.66
10135;BME280;5107;48.850;8.924;2023-05-14T05:56:11;96742.31;;;11.38;85.80
10135;BME280;5107;48.850;8.924;2023-05-14T05:58:37;96740.91;;;11.50;85.10
10135;BME280;5107;48.850;8.924;2023-05-14T06:01:02;96736.13;;;11.54;85.63
10135;BME280;5107;48.850;8.924;2023-05-14T06:03:28;96744.16;;;11.60;85.54
10135;BME280;5107;48.850;8.924;2023-05-14T06:05:53;96735.84;;;11.71;85.95
10135;BME280;5107;48.850;8.924;2023-05-14T06:08:18;96734.38;;;11.92;84.64
10135;BME280;5107;48.850;8.924;2023-05-14T06:10:44;96742.81;;;12.10;82.91
10135;BME280;5107;48.850;8.924;2023-05-14T06:13:10;96748.72;;;12.12;82.42
10135;BME280;5107;48.850;8.924;2023-05-14T06:15:35;96745.53;;;12.16;81.90
10135;BME280;5107;48.850;8.924;2023-05-14T06:18:00;96751.28;;;12.20;81.70
10135;BME280;5107;48.850;8.924;2023-05-14T06:20:26;96747.94;;;12.26;81.31
10135;BME280;5107;48.850;8.924;2023-05-14T06:22:51;96748.94;;;12.25;81.91
10135;BME280;5107;48.850;8.924;2023-05-14T06:25:17;96743.31;;;12.28;80.69
10135;BME280;5107;48.850;8.924;2023-05-14T06:27:42;96743.06;;;12.15;79.86
10135;BME280;5107;48.850;8.924;2023-05-14T06:30:08;96750.25;;;12.06;81.49
10135;BME280;5107;48.850;8.924;2023-05-14T06:32:35;96753.69;;;12.07;81.05
10135;BME280;5107;48.850;8.924;2023-05-14T06:35:00;96753.25;;;12.03;81.42
10135;BME280;5107;48.850;8.924;2023-05-14T06:37:25;96752.06;;;12.06;80.89
10135;BME280;5107;48.850;8.924;2023-05-14T06:39:51;96757.72;;;12.03;82.47
10135;BME280;5107;48.850;8.924;2023-05-14T06:42:16;96748.44;;;12.07;82.30
10135;BME280;5107;48.850;8.924;2023-05-14T06:44:42;96746.19;;;12.19;82.52
10135;BME280;5107;48.850;8.924;2023-05-14T06:47:08;96749.50;;;12.35;81.38
10135;BME280;5107;48.850;8.924;2023-05-14T06:49:34;96759.25;;;12.49;80.54
10135;BME280;5107;48.850;8.924;2023-05-14T06:51:59;96756.25;;;12.52;80.73
10135;BME280;5107;48.850;8.924;2023-05-14T06:54:25;96756.69;;;12.56;80.08
10135;BME280;5107;48.850;8.924;2023-05-14T06:56:50;96754.44;;;12.68;80.52
10135;BME280;5107;48.850;8.924;2023-05-14T06:59:15;96746.16;;;12.85;79.30
10135;BME280;5107;48.850;8.924;2023-05-14T07:01:41;96752.31;;;13.07;78.28
10135;BME280;5107;48.850;8.924;2023-05-14T07:04:06;96742.28;;;13.32;76.06
10135;BME280;5107;48.850;8.924;2023-05-14T07:06:31;96737.34;;;13.44;76.05
10135;BME280;5107;48.850;8.924;2023-05-14T07:08:57;96743.72;;;13.92;75.22
10135;BME280;5107;48.850;8.924;2023-05-14T07:11:22;96739.47;;;14.19;74.77
10135;BME280;5107;48.850;8.924;2023-05-14T07:13:47;96736.81;;;14.40;72.58
10135;BME280;5107;48.850;8.924;2023-05-14T07:16:13;96735.66;;;14.49;71.99
10135;BME280;5107;48.850;8.924;2023-05-14T07:18:38;96733.53;;;14.38;73.52
10135;BME280;5107;48.850;8.924;2023-05-14T07:21:04;96740.28;;;14.68;71.23
10135;BME280;5107;48.850;8.924;2023-05-14T07:23:31;96734.59;;;14.71;71.87
10135;BME280;5107;48.850;8.924;2023-05-14T07:25:57;96730.19;;;14.85;71.22
10135;BME280;5107;48.850;8.924;2023-05-14T07:28:22;96727.25;;;14.73;69.89
10135;BME280;5107;48.850;8.924;2023-05-14T07:30:47;96719.25;;;15.01;69.66
10135;BME280;5107;48.850;8.924;2023-05-14T07:33:13;96723.66;;;14.81;69.82
10135;BME280;5107;48.850;8.924;2023-05-14T07:35:38;96722.88;;;14.94;69.62
10135;BME280;5107;48.850;8.924;2023-05-14T07:38:03;96724.16;;;14.63;70.47
10135;BME280;5107;48.850;8.924;2023-05-14T07:40:30;96721.03;;;14.88;70.23
10135;BME280;5107;48.850;8.924;2023-05-14T07:42:56;96722.25;;;14.92;70.13
10135;BME280;5107;48.850;8.924;2023-05-14T07:45:21;96724.34;;;14.96;70.09
10135;BME280;5107;48.850;8.924;2023-05-14T07:47:46;96720.22;;;14.87;69.76
10135;BME280;5107;48.850;8.924;2023-05-14T07:50:16;96716.66;;;14.73;70.63
10135;BME280;5107;48.850;8.924;2023-05-14T07:52:42;96723.91;;;14.30;71.70
10135;BME280;5107;48.850;8.924;2023-05-14T07:55:08;96725.06;;;14.21;73.31
10135;BME280;5107;48.850;8.924;2023-05-14T07:57:33;96725.31;;;14.33;72.23
10135;BME280;5107;48.850;8.924;2023-05-14T07:59:58;96722.81;;;14.25;73.12
10135;BME280;5107;48.850;8.924;2023-05-14T08:02:24;96724.72;;;14.31;72.95
10135;BME280;5107;48.850;8.924;2023-05-14T08:04:49;96721.97;;;14.39;73.76
10135;BME280;5107;48.850;8.924;2023-05-14T08:07:14;96713.31;;;14.30;73.16
10135;BME280;5107;48.850;8.924;2023-05-14T08:09:39;96722.69;;;14.61;73.04
10135;BME280;5107;48.850;8.924;2023-05-14T08:12:05;96724.69;;;14.52;72.80
10135;BME280;5107;48.850;8.924;2023-05-14T08:14:31;96725.72;;;14.58;72.98
10135;BME280;5107;48.850;8.924;2023-05-14T08:16:56;96729.59;;;14.55;73.23
10135;BME280;5107;48.850;8.924;2023-05-14T08:19:22;96719.75;;;14.49;74.25
10135;BME280;5107;48.850;8.924;2023-05-14T08:21:48;96722.31;;;14.64;72.79
10135;BME280;5107;48.850;8.924;2023-05-14T08:24:13;96714.91;;;14.87;73.36
10135;BME280;5107;48.850;8.924;2023-05-14T08:26:39;96714.81;;;15.15;71.42
10135;BME280;5107;48.850;8.924;2023-05-14T08:29:04;96716.03;;;15.06;71.55
10135;BME280;5107;48.850;8.924;2023-05-14T08:31:29;96710.44;;;15.48;70.32
10135;BME280;5107;48.850;8.924;2023-05-14T08:33:55;96710.94;;;15.85;68.76
10135;BME280;5107;48.850;8.924;2023-05-14T08:36:21;96708.91;;;16.26;67.91
10135;BME280;5107;48.850;8.924;2023-05-14T08:38:46;96704.81;;;16.44;65.73
10135;BME280;5107;48.850;8.924;2023-05-14T08:41:13;96713.19;;;16.54;65.27
10135;BME280;5107;48.850;8.924;2023-05-14T08:43:50;96708.28;;;17.28;64.04
10135;BME280;5107;48.850;8.924;2023-05-14T08:46:22;96704.75;;;17.79;61.77
10135;BME280;5107;48.850;8.924;2023-05-14T08:48:55;96709.34;;;17.65;61.41
10135;BME280;5107;48.850;8.924;2023-05-14T08:51:21;96701.97;;;18.24;62.17
10135;BME280;5107;48.850;8.924;2023-05-14T08:53:46;96702.38;;;18.45;61.22
10135;BME280;5107;48.850;8.924;2023-05-14T08:56:13;96694.28;;;18.09;61.75
10135;BME280;5107;48.850;8.924;2023-05-14T08:58:40;96690.78;;;18.33;63.06
10135;BME280;5107;48.850;8.924;2023-05-14T09:01:05;96695.63;;;19.04;56.75
10135;BME280;5107;48.850;8.924;2023-05-14T09:03:32;96692.91;;;19.41;57.54
10135;BME280;5107;48.850;8.924;2023-05-14T09:05:57;96692.81;;;19.77;55.63
10135;BME280;5107;48.850;8.924;2023-05-14T09:08:24;96695.44;;;19.95;54.45
10135;BME280;5107;48.850;8.924;2023-05-14T09:10:49;96695.00;;;19.39;54.05
10135;BME280;5107;48.850;8.924;2023-05-14T09:13:14;96696.00;;;18.89;56.56
10135;BME280;5107;48.850;8.924;2023-05-14T09:15:40;96691.56;;;18.40;57.83
10135;BME280;5107;48.850;8.924;2023-05-14T09:18:06;96692.97;;;17.93;59.19
10135;BME280;5107;48.850;8.924;2023-05-14T09:20:31;96693.03;;;18.36;59.11
10135;BME280;5107;48.850;8.924;2023-05-14T09:22:57;96687.69;;;18.79;56.93
10135;BME280;5107;48.850;8.924;2023-05-14T09:25:28;96687.63;;;18.86;57.28
10135;BME280;5107;48.850;8.924;2023-05-14T09:27:55;96682.81;;;19.43;55.77
10135;BME280;5107;48.850;8.924;2023-05-14T09:30:24;96682.16;;;19.77;56.22
10135;BME280;5107;48.850;8.924;2023-05-14T09:32:53;96679.06;;;20.03;52.25
10135;BME280;5107;48.850;8.924;2023-05-14T09:35:20;96680.50;;;20.88;53.01
10135;BME280;5107;48.850;8.924;2023-05-14T09:37:48;96680.28;;;20.31;51.24
10135;BME280;5107;48.850;8.924;2023-05-14T09:40:15;96677.59;;;20.07;53.18
10135;BME280;5107;48.850;8.924;2023-05-14T09:42:41;96675.13;;;19.34;54.03
10135;BME280;5107;48.850;8.924;2023-05-14T09:45:07;96676.56;;;19.01;55.62
10135;BME280;5107;48.850;8.924;2023-05-14T09:47:34;96678.53;;;18.50;56.98
10135;BME280;5107;48.850;8.924;2023-05-14T09:49:59;96672.00;;;18.71;57.80
10135;BME280;5107;48.850;8.924;2023-05-14T09:52:25;96672.88;;;18.83;56.97
10135;BME280;5107;48.850;8.924;2023-05-14T09:54:53;96664.75;;;19.26;58.83
10135;BME280;5107;48.850;8.924;2023-05-14T09:57:19;96664.81;;;19.56;57.61
10135;BME280;5107;48.850;8.924;2023-05-14T09:59:44;96668.84;;;19.59;53.86
10135;BME280;5107;48.850;8.924;2023-05-14T10:02:36;96666.59;;;18.96;54.98
10135;BME280;5107;48.850;8.924;2023-05-14T10:05:04;96670.78;;;19.04;54.27
10135;BME280;5107;48.850;8.924;2023-05-14T10:07:40;96659.69;;;18.88;52.99
10135;BME280;5107;48.850;8.924;2023-05-14T10:10:07;96661.88;;;19.10;55.23
10135;BME280;5107;48.850;8.924;2023-05-14T10:12:37;96669.91;;;19.10;56.05
10135;BME280;5107;48.850;8.924;2023-05-14T10:15:11;96661.97;;;18.67;55.58
10135;BME280;5107;48.850;8.924;2023-05-14T10:17:39;96668.00;;;18.62;56.88
10135;BME280;5107;48.850;8.924;2023-05-14T10:20:07;96661.25;;;18.78;57.72
10135;BME280;5107;48.850;8.924;2023-05-14T10:22:34;96668.94;;;18.86;56.62
10135;BME280;5107;48.850;8.924;2023-05-14T10:25:00;96662.56;;;18.69;56.94
10135;BME280;5107;48.850;8.924;2023-05-14T10:27:27;96658.66;;;18.89;55.74
10135;BME280;5107;48.850;8.924;2023-05-14T10:29:53;96655.63;;;18.86;57.19
10135;BME280;5107;48.850;8.924;2023-05-14T10:32:21;96662.00;;;18.85;55.41
10135;BME280;5107;48.850;8.924;2023-05-14T10:34:48;96657.69;;;18.84;56.10
10135;BME280;5107;48.850;8.924;2023-05-14T10:37:26;96659.91;;;18.87;53.81
10135;BME280;5107;48.850;8.924;2023-05-14T10:39:59;96657.63;;;19.39;54.50
10135;BME280;5107;48.850;8.924;2023-05-14T10:42:31;96650.91;;;19.78;52.62
10135;BME280;5107;48.850;8.924;2023-05-14T10:45:01;96646.34;;;20.08;51.61
10135;BME280;5107;48.850;8.924;2023-05-14T10:47:30;96647.13;;;20.08;49.76
10135;BME280;5107;48.850;8.924;2023-05-14T10:50:01;96648.97;;;19.96;51.25
10135;BME280;5107;48.850;8.924;2023-05-14T10:52:28;96638.53;;;20.06;48.73
10135;BME280;5107;48.850;8.924;2023-05-14T10:54:58;96639.38;;;20.42;49.60
10135;BME280;5107;48.850;8.924;2023-05-14T10:57:26;96640.84;;;20.26;49.60
10135;BME280;5107;48.850;8.924;2023-05-14T10:59:53;96635.56;;;20.38;47.80
10135;BME280;5107;48.850;8.924;2023-05-14T11:02:20;96630.16;;;21.13;48.07
10135;BME280;5107;48.850;8.924;2023-05-14T11:04:58;96629.34;;;21.24;48.03
10135;BME280;5107;48.850;8.924;2023-05-14T11:07:27;96624.63;;;21.59;47.86
10135;BME280;5107;48.850;8.924;2023-05-14T11:09:59;96620.16;;;21.48;47.32
10135;BME280;5107;48.850;8.924;2023-05-14T11:12:25;96619.69;;;20.83;50.53
10135;BME280;5107;48.850;8.924;2023-05-14T11:14:52;96613.78;;;19.88;52.65
10135;BME280;5107;48.850;8.924;2023-05-14T11:17:17;96621.19;;;19.32;52.95
10135;BME280;5107;48.850;8.924;2023-05-14T11:19:43;96619.63;;;18.77;55.37
10135;BME280;5107;48.850;8.924;2023-05-14T11:22:10;96610.34;;;18.43;56.38
10135;BME280;5107;48.850;8.924;2023-05-14T11:24:38;96611.00;;;18.20;57.25
10135;BME280;5107;48.850;8.924;2023-05-14T11:27:06;96622.03;;;18.24;57.04
10135;BME280;5107;48.850;8.924;2023-05-14T11:29:32;96612.16;;;18.06;56.50
10135;BME280;5107;48.850;8.924;2023-05-14T11:31:57;96613.97;;;18.30;57.35
10135;BME280;5107;48.850;8.924;2023-05-14T11:34:23;96609.69;;;18.47;57.64
10135;BME280;5107;48.850;8.924;2023-05-14T11:36:48;96614.97;;;18.72;57.22
10135;BME280;5107;48.850;8.924;2023-05-14T11:39:17;96607.91;;;18.96;57.18
10135;BME280;5107;48.850;8.924;2023-05-14T11:41:46;96609.75;;;19.25;54.36
10135;BME280;5107;48.850;8.924;2023-05-14T11:44:11;96614.16;;;19.20;54.52
10135;BME280;5107;48.850;8.924;2023-05-14T11:46:37;96609.13;;;19.12;53.54
10135;BME280;5107;48.850;8.924;2023-05-14T11:49:05;96611.44;;;19.38;54.08
10135;BME280;5107;48.850;8.924;2023-05-14T11:51:31;96608.41;;;19.34;53.49
10135;BME280;5107;48.850;8.924;2023-05-14T11:53:57;96605.78;;;19.46;56.18
10135;BME280;5107;48.850;8.924;2023-05-14T11:56:25;96603.25;;;19.51;57.93
10135;BME280;5107;48.850;8.924;2023-05-14T11:58:56;96606.31;;;19.37;51.55
10135;BME280;5107;48.850;8.924;2023-05-14T12:01:24;96602.06;;;19.17;54.01
10135;BME280;5107;48.850;8.924;2023-05-14T12:03:50;96598.13;;;19.20;52.64
10135;BME280;5107;48.850;8.924;2023-05-14T12:06:16;96603.31;;;19.45;54.51
10135;BME280;5107;48.850;8.924;2023-05-14T12:08:42;96604.16;;;19.15;56.80
10135;BME280;5107;48.850;8.924;2023-05-14T12:11:07;96600.19;;;19.06;57.95
10135;BME280;5107;48.850;8.924;2023-05-14T12:13:33;96596.91;;;19.04;58.04
10135;BME280;5107;48.850;8.924;2023-05-14T12:16:00;96587.69;;;18.88;57.39
10135;BME280;5107;48.850;8.924;2023-05-14T12:18:28;96588.22;;;18.79;59.23
10135;BME280;5107;48.850;8.924;2023-05-14T12:20:54;96592.34;;;18.75;58.33
10135;BME280;5107;48.850;8.924;2023-05-14T12:23:27;96582.56;;;18.57;57.73
10135;BME280;5107;48.850;8.924;2023-05-14T12:25:53;96574.09;;;18.60;57.19
10135;BME280;5107;48.850;8.924;2023-05-14T12:28:18;96578.22;;;18.56;57.35
10135;BME280;5107;48.850;8.924;2023-05-14T12:30:44;96575.69;;;18.43;58.34
10135;BME280;5107;48.850;8.924;2023-05-14T12:33:10;96574.19;;;18.83;57.94
10135;BME280;5107;48.850;8.924;2023-05-14T12:35:35;96570.53;;;19.67;55.34
10135;BME280;5107;48.850;8.924;2023-05-14T12:38:02;96572.31;;;19.85;54.82
10135;BME280;5107;48.850;8.924;2023-05-14T12:40:28;96570.69;;;19.43;55.80
10135;BME280;5107;48.850;8.924;2023-05-14T12:42:53;96583.03;;;19.14;56.45
10135;BME280;5107;48.850;8.924;2023-05-14T12:45:18;96573.09;;;18.91;57.60
10135;BME280;5107;48.850;8.924;2023-05-14T12:47:44;96576.38;;;18.75;58.36
10135;BME280;5107;48.850;8.924;2023-05-14T12:50:09;96573.78;;;18.68;59.10
10135;BME280;5107;48.850;8.924;2023-05-14T12:52:35;96574.69;;;18.62;59.73
10135;BME280;5107;48.850;8.924;2023-05-14T12:55:00;96566.00;;;18.30;60.78
10135;BME280;5107;48.850;8.924;2023-05-14T12:57:25;96563.03;;;18.20;60.67
10135;BME280;5107;48.850;8.924;2023-05-14T12:59:51;96563.69;;;18.34;60.03
10135;BME280;5107;48.850;8.924;2023-05-14T13:02:17;96559.13;;;18.59;59.46
10135;BME280;5107;48.850;8.924;2023-05-14T13:04:43;96561.28;;;18.69;60.64
10135;BME280;5107;48.850;8.924;2023-05-14T13:07:08;96554.25;;;19.46;60.14
10135;BME280;5107;48.850;8.924;2023-05-14T13:09:33;96554.13;;;19.41;58.89